Terminal Aerodrome Forecast
Issued by NWS Twin Cities, MN

Home | Current Version | Previous Version | Text Only | Print | Product List | Glossary On
Versions: 1 2 3 4 5 6 7 8 9 10 11 12
957
FTUS43 KMPX 200520
TAFEAU
TAF
KEAU 200520Z 2006/2106 13006KT P6SM OVC200 WS020/20040KT
     FM201000 13008KT P6SM SCT040 OVC080
     FM201400 15010KT P6SM OVC040
     FM201700 16010KT 4SM SHRA BR VCTS OVC020CB
      TEMPO 2018/2021 2SM TSRA BR SCT020 BKN030CB
     FM202100 19010KT 3SM -RA BR OVC015
     FM210300 23009KT 5SM -RA BR BKN020
     FM210500 27008KT P6SM SCT025 BKN150=

USA.gov is the U.S. government's official web portal to all federal, state and local government web resources and services.